createdAt,value
2022-10-27T00:01:06.806Z,2.95
2022-10-27T00:03:34.920Z,2.38
2022-10-27T00:06:07.174Z,2.67
2022-10-27T00:08:35.967Z,3.33
2022-10-27T00:11:07.400Z,2.63
2022-10-27T00:13:36.144Z,4.22
2022-10-27T00:16:06.605Z,3.85
2022-10-27T00:18:34.767Z,3.10
2022-10-27T00:21:04.081Z,3.28
2022-10-27T00:23:32.500Z,4.07
2022-10-27T00:26:01.332Z,3.35
2022-10-27T00:28:31.198Z,2.97
2022-10-27T00:31:00.987Z,2.65
2022-10-27T00:33:29.379Z,2.70
2022-10-27T00:35:57.412Z,2.72
2022-10-27T00:38:25.558Z,2.60
2022-10-27T00:40:53.493Z,3.03
2022-10-27T00:43:26.308Z,2.33
2022-10-27T00:45:57.288Z,3.17
2022-10-27T00:48:26.457Z,2.35
2022-10-27T00:50:54.677Z,2.40
2022-10-27T00:53:22.775Z,2.80
2022-10-27T00:55:51.133Z,2.85
2022-10-27T00:58:21.030Z,3.63
2022-10-27T01:00:49.260Z,2.30
2022-10-27T01:03:23.141Z,2.75
2022-10-27T01:05:53.268Z,2.63
2022-10-27T01:08:24.313Z,3.05
2022-10-27T01:10:53.165Z,2.42
2022-10-27T01:13:21.899Z,2.33
2022-10-27T01:16:00.631Z,2.65
2022-10-27T01:18:39.968Z,2.22
2022-10-27T01:21:37.861Z,2.63
2022-10-27T01:24:42.968Z,3.05
2022-10-27T01:27:26.054Z,2.28
2022-10-27T01:30:05.211Z,3.50
2022-10-27T01:32:42.141Z,2.72
2022-10-27T01:35:17.183Z,2.63
2022-10-27T01:37:49.512Z,2.80
2022-10-27T01:40:23.614Z,2.75
2022-10-27T01:42:55.547Z,3.53
2022-10-27T01:45:28.205Z,2.25
2022-10-27T01:47:58.699Z,3.55
2022-10-27T01:50:40.090Z,2.15
2022-10-27T01:53:18.448Z,2.38
2022-10-27T01:55:54.573Z,3.55
2022-10-27T01:58:38.417Z,2.45
2022-10-27T02:01:23.454Z,2.78
2022-10-27T02:04:00.786Z,2.22
2022-10-27T02:06:34.170Z,2.67
2022-10-27T02:09:07.216Z,2.20
2022-10-27T02:11:38.646Z,2.92
2022-10-27T02:14:07.611Z,2.30
2022-10-27T02:16:41.686Z,2.20
2022-10-27T02:19:16.719Z,2.22
2022-10-27T02:21:47.956Z,2.28
2022-10-27T02:24:16.605Z,2.13
2022-10-27T02:26:49.044Z,2.33
2022-10-27T02:29:21.235Z,2.38
2022-10-27T02:31:51.790Z,2.88
2022-10-27T02:34:21.913Z,2.63
2022-10-27T02:36:49.782Z,3.65
2022-10-27T02:39:17.647Z,2.70
2022-10-27T02:41:45.756Z,2.35
2022-10-27T02:44:13.690Z,3.35
2022-10-27T02:46:43.649Z,2.85
2022-10-27T02:49:13.530Z,2.13
2022-10-27T02:51:43.060Z,2.25
2022-10-27T02:54:10.957Z,2.85
2022-10-27T02:56:38.886Z,2.30
2022-10-27T02:59:06.832Z,2.55
2022-10-27T03:01:35.228Z,2.50
2022-10-27T03:04:03.284Z,4.25
2022-10-27T03:06:31.268Z,3.20
2022-10-27T03:09:00.809Z,2.10
2022-10-27T03:11:28.746Z,1.95
2022-10-27T03:13:56.686Z,2.35
2022-10-27T03:16:24.646Z,2.72
2022-10-27T03:18:52.591Z,2.78
2022-10-27T03:21:20.517Z,2.10
2022-10-27T03:23:48.436Z,3.08
2022-10-27T03:26:19.059Z,2.40
2022-10-27T03:28:47.032Z,2.50
2022-10-27T03:31:14.966Z,1.95
2022-10-27T03:33:42.845Z,2.83
2022-10-27T03:36:11.808Z,3.03
2022-10-27T03:38:39.724Z,2.17
2022-10-27T03:41:07.784Z,2.33
2022-10-27T03:43:37.094Z,2.15
2022-10-27T03:46:05.005Z,2.60
2022-10-27T03:48:32.903Z,2.88
2022-10-27T03:51:00.899Z,1.98
2022-10-27T03:53:29.185Z,2.42
2022-10-27T03:55:57.080Z,3.03
2022-10-27T03:58:24.975Z,3.35
2022-10-27T04:00:54.592Z,3.13
2022-10-27T04:03:22.465Z,2.00
2022-10-27T04:05:51.414Z,1.80
2022-10-27T04:08:19.505Z,1.73
2022-10-27T04:10:47.790Z,3.08
2022-10-27T04:13:15.814Z,2.30
2022-10-27T04:15:43.842Z,1.65
2022-10-27T04:18:13.549Z,1.92
2022-10-27T04:20:41.462Z,3.33
2022-10-27T04:23:09.421Z,3.05
2022-10-27T04:25:37.346Z,1.90
2022-10-27T04:28:07.114Z,2.35
2022-10-27T04:30:35.148Z,1.95
2022-10-27T04:33:03.558Z,1.83
2022-10-27T04:38:00.839Z,1.70
2022-10-27T04:40:28.906Z,2.22
2022-10-27T04:42:56.887Z,1.88
2022-10-27T04:45:24.803Z,2.95
2022-10-27T04:47:53.169Z,1.73
2022-10-27T04:50:22.396Z,2.17
2022-10-27T04:52:59.260Z,2.60
2022-10-27T04:55:27.859Z,1.48
2022-10-27T04:57:55.960Z,1.80
2022-10-27T05:00:24.914Z,1.98
2022-10-27T05:02:56.763Z,1.95
2022-10-27T05:05:26.331Z,1.90
2022-10-27T05:07:55.113Z,1.90
2022-10-27T05:10:25.038Z,1.70
2022-10-27T05:12:53.390Z,2.25
2022-10-27T05:15:21.495Z,2.10
2022-10-27T05:17:49.966Z,2.30
2022-10-27T05:20:18.876Z,3.08
2022-10-27T05:22:46.819Z,2.13
2022-10-27T05:25:15.621Z,2.00
2022-10-27T05:27:44.948Z,1.95
2022-10-27T05:30:15.537Z,3.15
2022-10-27T05:32:46.601Z,2.17
2022-10-27T05:35:15.615Z,2.83
2022-10-27T05:37:45.946Z,2.25
2022-10-27T05:40:14.559Z,2.95
2022-10-27T05:42:52.379Z,3.63
2022-10-27T05:45:21.596Z,2.70
2022-10-27T05:47:49.606Z,2.25
2022-10-27T05:50:17.634Z,2.03
2022-10-27T05:52:47.843Z,1.88
2022-10-27T05:55:15.767Z,2.25
2022-10-27T05:57:43.671Z,2.63
2022-10-27T06:00:14.213Z,3.00
2022-10-27T06:02:43.521Z,2.60
2022-10-27T06:05:11.432Z,2.33
2022-10-27T06:07:39.399Z,2.38
2022-10-27T06:10:07.624Z,2.10
2022-10-27T06:12:35.821Z,2.13
2022-10-27T06:15:03.757Z,2.50
2022-10-27T06:17:33.114Z,1.88
2022-10-27T06:20:01.076Z,2.13
2022-10-27T06:22:29.780Z,2.17
2022-10-27T06:24:58.003Z,2.25
2022-10-27T06:27:26.078Z,2.33
2022-10-27T06:29:53.998Z,1.70
2022-10-27T06:32:22.053Z,2.40
2022-10-27T06:34:57.286Z,2.33
2022-10-27T06:37:25.235Z,2.67
2022-10-27T06:39:55.769Z,2.10
2022-10-27T06:42:24.794Z,2.10
2022-10-27T06:44:52.798Z,2.35
2022-10-27T06:47:20.720Z,2.10
2022-10-27T06:49:48.604Z,2.05
2022-10-27T06:52:17.857Z,1.83
2022-10-27T06:54:45.777Z,2.47
2022-10-27T06:57:13.712Z,2.25
2022-10-27T06:59:41.929Z,2.00
2022-10-27T07:02:12.525Z,2.55
2022-10-27T07:04:42.738Z,2.75
2022-10-27T07:07:10.830Z,2.03
2022-10-27T07:09:40.509Z,1.88
2022-10-27T07:12:09.189Z,1.80
2022-10-27T07:14:37.129Z,3.63
2022-10-27T07:17:07.160Z,1.67
2022-10-27T07:19:35.082Z,1.50
2022-10-27T07:22:03.091Z,2.75
2022-10-27T07:24:31.059Z,1.80
2022-10-27T07:27:00.399Z,2.15
2022-10-27T07:29:28.472Z,2.75
2022-10-27T07:31:56.445Z,2.67
2022-10-27T07:34:24.394Z,2.53
2022-10-27T07:36:52.350Z,1.80
2022-10-27T07:39:20.578Z,1.90
2022-10-27T07:41:48.490Z,3.13
2022-10-27T07:44:18.307Z,2.03
2022-10-27T07:46:46.256Z,3.00
2022-10-27T07:49:14.237Z,3.28
2022-10-27T07:51:42.257Z,2.03
2022-10-27T07:54:10.555Z,1.77
2022-10-27T07:56:38.691Z,1.88
2022-10-27T07:59:09.393Z,1.60
2022-10-27T08:01:38.872Z,2.65
2022-10-27T08:04:07.194Z,1.90
2022-10-27T08:06:37.314Z,1.80
2022-10-27T08:09:05.503Z,1.60
2022-10-27T08:11:33.424Z,1.95
2022-10-27T08:14:01.364Z,1.65
2022-10-27T08:16:29.623Z,2.08
2022-10-27T08:18:59.671Z,2.60
2022-10-27T08:21:27.594Z,2.50
2022-10-27T08:23:55.477Z,2.17
2022-10-27T08:26:23.485Z,2.20
2022-10-27T08:28:51.553Z,3.97
2022-10-27T08:31:20.307Z,2.50
2022-10-27T08:33:48.306Z,3.70
2022-10-27T08:36:18.163Z,2.25
2022-10-27T08:38:46.275Z,4.30
2022-10-27T08:41:26.761Z,2.83
2022-10-27T08:44:17.556Z,3.28
2022-10-27T08:46:50.294Z,2.35
2022-10-27T08:49:34.180Z,2.90
2022-10-27T08:52:13.600Z,2.17
2022-10-27T08:54:44.813Z,2.15
2022-10-27T08:57:20.490Z,3.35
2022-10-27T08:59:50.095Z,2.28
2022-10-27T09:02:36.899Z,2.90
2022-10-27T09:05:34.495Z,2.25
2022-10-27T09:08:11.905Z,3.33
2022-10-27T09:10:45.363Z,1.85
2022-10-27T09:13:23.983Z,3.00
2022-10-27T09:15:56.159Z,3.45
2022-10-27T09:18:31.382Z,2.25
2022-10-27T09:21:02.069Z,1.90
2022-10-27T09:23:38.728Z,2.38
2022-10-27T09:26:09.684Z,3.13
2022-10-27T09:28:42.837Z,3.45
2022-10-27T09:34:03.791Z,2.80
2022-10-27T09:36:32.340Z,3.63
2022-10-27T09:39:01.912Z,2.22
2022-10-27T09:41:30.002Z,1.83
2022-10-27T09:43:59.676Z,2.55
2022-10-27T09:46:30.808Z,3.08
2022-10-27T09:49:10.751Z,3.25
2022-10-27T09:51:45.045Z,4.90
2022-10-27T09:54:31.443Z,2.50
2022-10-27T09:57:08.816Z,4.35
2022-10-27T09:59:38.119Z,3.17
2022-10-27T10:02:07.287Z,3.50
2022-10-27T10:04:38.335Z,2.80
2022-10-27T10:07:18.820Z,2.50
2022-10-27T10:10:10.967Z,3.60
2022-10-27T10:12:58.102Z,4.30
2022-10-27T10:15:44.201Z,2.90
2022-10-27T10:18:25.576Z,3.17
2022-10-27T10:24:00.759Z,3.97
2022-10-27T10:26:57.884Z,2.65
2022-10-27T10:29:33.484Z,3.40
2022-10-27T10:32:19.745Z,2.00
2022-10-27T10:34:53.125Z,2.17
2022-10-27T10:37:32.793Z,2.35
2022-10-27T10:40:32.217Z,2.58
2022-10-27T10:43:17.796Z,2.88
2022-10-27T10:45:53.848Z,2.90
2022-10-27T10:48:49.088Z,4.35
2022-10-27T10:51:29.281Z,3.10
2022-10-27T10:54:19.703Z,2.97
2022-10-27T10:57:23.516Z,3.65
2022-10-27T11:01:08.507Z,2.45
2022-10-27T11:03:57.627Z,2.67
2022-10-27T11:06:47.033Z,3.30
2022-10-27T11:09:24.263Z,2.45
2022-10-27T11:12:18.172Z,3.13
2022-10-27T11:15:03.070Z,3.35
2022-10-27T11:17:44.034Z,3.25
2022-10-27T11:20:47.729Z,2.83
2022-10-27T11:23:35.195Z,2.70
2022-10-27T11:26:05.632Z,3.15
2022-10-27T11:28:50.124Z,1.85
2022-10-27T11:31:37.101Z,2.97
2022-10-27T11:34:18.121Z,2.60
2022-10-27T11:37:03.997Z,2.28
2022-10-27T11:39:44.511Z,2.30
2022-10-27T11:42:31.131Z,2.33
2022-10-27T11:45:19.025Z,3.42
2022-10-27T11:48:12.977Z,2.13
2022-10-27T11:50:57.394Z,2.63
2022-10-27T11:53:53.791Z,2.22
2022-10-27T11:56:45.960Z,2.13
2022-10-27T11:59:23.875Z,5.78
2022-10-27T12:02:40.577Z,8.75
2022-10-27T12:05:27.768Z,9.70
2022-10-27T12:11:52.289Z,6.63
2022-10-27T12:14:43.469Z,8.65
2022-10-27T12:17:31.487Z,5.82
2022-10-27T12:20:13.833Z,9.23
2022-10-27T12:23:11.349Z,8.23
2022-10-27T12:26:00.255Z,5.45
2022-10-27T12:28:35.884Z,5.55
2022-10-27T12:31:08.209Z,6.25
2022-10-27T12:37:22.524Z,7.65
2022-10-27T12:40:44.848Z,2.95
2022-10-27T12:57:29.259Z,12.98
2022-10-27T13:00:06.403Z,7.00
2022-10-27T13:02:41.286Z,8.40
2022-10-27T13:05:55.956Z,6.22
2022-10-27T13:08:56.796Z,8.68
2022-10-27T13:11:45.491Z,7.68
2022-10-27T13:14:51.208Z,6.80
2022-10-27T13:17:32.401Z,8.63
2022-10-27T13:20:07.972Z,6.65
2022-10-27T13:22:42.901Z,6.82
2022-10-27T13:25:17.646Z,6.60
2022-10-27T13:27:52.233Z,6.10
2022-10-27T13:30:22.860Z,5.32
2022-10-27T13:32:56.360Z,4.57
2022-10-27T13:35:35.585Z,4.72
2022-10-27T13:38:26.366Z,6.20
2022-10-27T13:40:56.746Z,6.68
2022-10-27T13:43:51.338Z,4.35
2022-10-27T13:46:21.946Z,5.03
2022-10-27T13:48:51.219Z,4.57
2022-10-27T13:52:02.794Z,5.47
2022-10-27T13:54:57.687Z,5.25
2022-10-27T13:58:03.194Z,4.35
2022-10-27T14:01:25.010Z,4.40
2022-10-27T14:04:31.314Z,4.78
2022-10-27T14:07:02.601Z,10.13
2022-10-27T14:09:39.557Z,5.85
2022-10-27T14:12:17.498Z,5.25
2022-10-27T14:14:45.397Z,4.03
2022-10-27T14:17:20.743Z,5.00
2022-10-27T14:19:58.483Z,4.28
2022-10-27T14:22:31.092Z,7.15
2022-10-27T14:25:03.284Z,7.88
2022-10-27T14:27:31.102Z,5.05
2022-10-27T14:30:15.995Z,6.78
2022-10-27T14:32:43.812Z,6.32
2022-10-27T14:35:23.874Z,9.88
2022-10-27T14:37:57.129Z,7.45
2022-10-27T14:40:34.821Z,3.22
2022-10-27T14:43:03.006Z,2.97
2022-10-27T14:45:31.713Z,3.70
2022-10-27T14:48:02.758Z,4.72
2022-10-27T14:50:34.279Z,3.95
2022-10-27T14:53:03.229Z,1.95
2022-10-27T14:55:33.413Z,5.35
2022-10-27T14:58:01.656Z,8.55
2022-10-27T15:00:30.976Z,5.57
2022-10-27T15:03:01.217Z,4.35
2022-10-27T15:05:30.803Z,4.37
2022-10-27T15:08:02.091Z,4.80
2022-10-27T15:10:38.617Z,3.15
2022-10-27T15:13:08.877Z,4.10
2022-10-27T15:15:42.484Z,2.47
2022-10-27T15:18:21.434Z,3.95
2022-10-27T15:20:49.988Z,3.15
2022-10-27T15:23:20.147Z,3.55
2022-10-27T15:25:49.358Z,4.43
2022-10-27T15:28:18.117Z,4.90
2022-10-27T15:30:46.125Z,3.78
2022-10-27T15:33:37.093Z,3.25
2022-10-27T15:36:25.045Z,4.63
2022-10-27T15:38:55.065Z,5.00
2022-10-27T15:41:24.556Z,3.38
2022-10-27T15:43:54.097Z,4.85
2022-10-27T15:46:30.738Z,3.90
2022-10-27T15:49:21.217Z,7.40
2022-10-27T15:51:51.176Z,4.78
2022-10-27T15:54:32.134Z,9.95
2022-10-27T15:57:00.617Z,5.18
2022-10-27T15:59:29.748Z,6.18
2022-10-27T16:02:01.346Z,11.60
2022-10-27T16:04:32.089Z,8.52
2022-10-27T16:07:31.553Z,3.95
2022-10-27T16:10:00.732Z,6.65
2022-10-27T16:12:35.352Z,7.97
2022-10-27T16:15:07.657Z,5.45
2022-10-27T16:17:43.348Z,5.28
2022-10-27T16:20:18.235Z,7.10
2022-10-27T16:22:46.184Z,5.75
2022-10-27T16:25:16.422Z,5.45
2022-10-27T16:27:44.706Z,6.70
2022-10-27T16:30:17.201Z,4.38
2022-10-27T16:32:45.982Z,6.75
2022-10-27T16:35:14.624Z,5.90
2022-10-27T16:37:42.986Z,7.55
2022-10-27T16:40:14.928Z,6.47
2022-10-27T16:42:46.278Z,4.93
2022-10-27T16:45:14.627Z,6.55
2022-10-27T16:47:42.798Z,6.32
2022-10-27T16:50:11.379Z,5.60
2022-10-27T16:52:39.669Z,5.88
2022-10-27T16:55:09.989Z,8.32
2022-10-27T16:57:41.005Z,5.45
2022-10-27T17:00:14.197Z,4.80
2022-10-27T17:02:42.168Z,4.93
2022-10-27T17:05:10.554Z,6.78
2022-10-27T17:07:39.092Z,5.32
2022-10-27T17:10:08.071Z,5.00
2022-10-27T17:12:36.044Z,5.10
2022-10-27T17:15:05.800Z,5.70
2022-10-27T17:17:34.446Z,4.07
2022-10-27T17:20:02.340Z,6.55
2022-10-27T17:22:30.168Z,6.78
2022-10-27T17:24:57.990Z,6.32
2022-10-27T17:27:25.827Z,4.10
2022-10-27T17:29:53.595Z,6.78
2022-10-27T17:32:22.742Z,3.83
2022-10-27T17:34:50.519Z,7.20
2022-10-27T17:37:18.279Z,5.25
2022-10-27T17:39:46.059Z,3.63
2022-10-27T17:42:14.346Z,5.70
2022-10-27T17:44:43.347Z,7.78
2022-10-27T17:47:11.402Z,8.30
2022-10-27T17:49:40.931Z,6.38
2022-10-27T17:52:09.217Z,10.00
2022-10-27T17:54:39.591Z,5.25
2022-10-27T17:57:09.645Z,7.78
2022-10-27T17:59:38.480Z,9.02
2022-10-27T18:02:07.289Z,6.82
2022-10-27T18:04:38.011Z,4.63
2022-10-27T18:07:07.848Z,6.50
2022-10-27T18:09:38.640Z,7.38
2022-10-27T18:12:07.032Z,4.95
2022-10-27T18:14:35.354Z,5.38
2022-10-27T18:17:05.916Z,4.70
2022-10-27T18:19:36.304Z,4.28
2022-10-27T18:22:04.540Z,3.55
2022-10-27T18:24:37.025Z,4.70
2022-10-27T18:27:05.527Z,5.97
2022-10-27T18:29:37.887Z,6.53
2022-10-27T18:32:27.867Z,4.65
2022-10-27T18:35:10.474Z,4.78
2022-10-27T18:37:44.394Z,4.28
2022-10-27T18:40:36.106Z,5.20
2022-10-27T18:43:27.644Z,6.05
2022-10-27T18:46:24.349Z,3.15
2022-10-27T18:49:30.523Z,2.58
2022-10-27T18:52:08.391Z,3.47
2022-10-27T18:54:42.643Z,4.72
2022-10-27T18:57:31.457Z,3.28
2022-10-27T19:00:02.055Z,7.13
2022-10-27T19:02:30.533Z,3.17
2022-10-27T19:04:59.107Z,3.88
2022-10-27T19:07:31.544Z,3.75
2022-10-27T19:09:59.711Z,3.70
2022-10-27T19:12:29.450Z,4.10
2022-10-27T19:14:58.907Z,3.95
2022-10-27T19:17:31.776Z,4.45
2022-10-27T19:20:00.164Z,3.53
2022-10-27T19:22:28.586Z,4.35
2022-10-27T19:24:57.080Z,2.22
2022-10-27T19:27:25.779Z,3.00
2022-10-27T19:29:57.276Z,2.80
2022-10-27T19:32:25.622Z,3.88
2022-10-27T19:34:56.255Z,3.85
2022-10-27T19:37:25.235Z,4.97
2022-10-27T19:39:53.935Z,2.65
2022-10-27T19:42:26.375Z,4.10
2022-10-27T19:44:56.298Z,3.90
2022-10-27T19:49:56.362Z,4.22
2022-10-27T19:52:28.455Z,4.32
2022-10-27T19:54:56.955Z,3.00
2022-10-27T20:00:15.016Z,2.53
2022-10-27T20:02:52.989Z,5.47
2022-10-27T20:05:24.071Z,2.15
2022-10-27T20:07:54.996Z,3.50
2022-10-27T20:10:23.889Z,2.97
2022-10-27T20:12:52.805Z,2.30
2022-10-27T20:15:24.463Z,2.22
2022-10-27T20:17:53.064Z,3.92
2022-10-27T20:20:22.954Z,3.17
2022-10-27T20:22:51.331Z,2.17
2022-10-27T20:25:19.642Z,2.78
2022-10-27T20:27:47.716Z,2.22
2022-10-27T20:30:16.475Z,3.03
2022-10-27T20:32:46.814Z,1.95
2022-10-27T20:35:20.431Z,3.13
2022-10-27T20:37:50.261Z,3.65
2022-10-27T20:40:36.892Z,2.63
2022-10-27T20:43:15.466Z,3.42
2022-10-27T20:45:53.040Z,2.72
2022-10-27T20:48:34.794Z,2.67
2022-10-27T20:51:06.771Z,2.97
2022-10-27T20:53:46.059Z,2.97
2022-10-27T20:56:17.235Z,2.92
2022-10-27T20:58:46.338Z,2.63
2022-10-27T21:01:30.049Z,3.40
2022-10-27T21:04:06.171Z,2.75
2022-10-27T21:06:37.156Z,2.08
2022-10-27T21:09:09.028Z,3.20
2022-10-27T21:11:37.333Z,2.50
2022-10-27T21:14:11.092Z,2.80
2022-10-27T21:16:39.662Z,2.28
2022-10-27T21:19:11.035Z,2.85
2022-10-27T21:21:40.277Z,3.28
2022-10-27T21:24:14.612Z,3.67
2022-10-27T21:26:46.182Z,3.03
2022-10-27T21:29:14.699Z,2.20
2022-10-27T21:31:42.861Z,3.45
2022-10-27T21:34:20.023Z,2.10
2022-10-27T21:36:48.635Z,2.22
2022-10-27T21:39:16.589Z,2.20
2022-10-27T21:41:47.045Z,2.55
2022-10-27T21:44:30.737Z,2.47
2022-10-27T21:47:01.570Z,3.13
2022-10-27T21:49:34.140Z,2.50
2022-10-27T21:52:02.438Z,3.83
2022-10-27T21:54:32.725Z,4.10
2022-10-27T21:57:03.238Z,2.38
2022-10-27T21:59:31.298Z,2.03
2022-10-27T22:02:02.541Z,2.65
2022-10-27T22:04:34.313Z,2.10
2022-10-27T22:07:02.317Z,2.08
2022-10-27T22:09:30.341Z,2.03
2022-10-27T22:11:58.442Z,2.47
2022-10-27T22:14:30.542Z,2.53
2022-10-27T22:17:03.396Z,2.53
2022-10-27T22:19:33.607Z,2.63
2022-10-27T22:24:34.718Z,2.33
2022-10-27T22:27:03.269Z,2.80
2022-10-27T22:29:31.355Z,2.22
2022-10-27T22:31:59.429Z,2.03
2022-10-27T22:34:28.239Z,2.97
2022-10-27T22:36:59.483Z,2.53
2022-10-27T22:39:28.016Z,2.10
2022-10-27T22:41:56.030Z,2.03
2022-10-27T22:44:26.254Z,1.98
2022-10-27T22:46:54.361Z,2.58
2022-10-27T22:49:22.321Z,2.20
2022-10-27T22:51:51.793Z,1.90
2022-10-27T22:54:21.415Z,2.53
2022-10-27T22:56:51.171Z,2.40
2022-10-27T22:59:22.430Z,2.15
2022-10-27T23:01:53.872Z,5.32
2022-10-27T23:04:27.672Z,3.30
2022-10-27T23:06:56.732Z,2.33
2022-10-27T23:09:31.867Z,2.90
2022-10-27T23:12:00.778Z,2.17
2022-10-27T23:14:28.784Z,2.58
2022-10-27T23:16:59.618Z,3.47
2022-10-27T23:19:30.247Z,2.30
2022-10-27T23:21:58.668Z,2.55
2022-10-27T23:24:28.353Z,2.65
2022-10-27T23:26:58.981Z,2.20
2022-10-27T23:29:27.374Z,2.85
2022-10-27T23:31:55.375Z,2.35
2022-10-27T23:34:23.427Z,2.97
2022-10-27T23:36:51.578Z,2.83
2022-10-27T23:39:19.738Z,2.00
2022-10-27T23:41:49.555Z,2.13
2022-10-27T23:44:18.228Z,2.53
2022-10-27T23:46:46.615Z,3.22
2022-10-27T23:49:17.238Z,3.30
2022-10-27T23:51:48.817Z,2.50
2022-10-27T23:54:16.991Z,2.83
2022-10-27T23:59:34.035Z,2.00
